Time;durP1;ratioP1;P1;durP2;ratioP2;P2;SDS_P1;SDS_P2;PMS_P1;PMS_P2;Temp;Humidity;BMP_temperature;BMP_pressure;BME280_temperature;BME280_humidity;BME280_pressure;Samples;Min_cycle;Max_cycle;Signal;HPM_P1;HPM_P2
2023/04/11 00:01:06;;;;;;;;;;;;;;;9.77;87.95;96462.22;5021038;28;19960;-66
2023/04/11 00:03:31;;;;;;;;;;;;;;;9.79;87.34;96456.41;5023310;28;19922;-71
2023/04/11 00:05:56;;;;;;;;;;;;;;;9.79;86.86;96451.72;5024736;28;20019;-71
2023/04/11 00:08:22;;;;;;;;;;;;;;;9.93;85.88;96445.69;5010445;28;19921;-71
2023/04/11 00:10:47;;;;;;;;;;;;;;;9.91;85.18;96450.72;5023822;28;19956;-70
2023/04/11 00:13:12;;;;;;;;;;;;;;;9.74;85.63;96444.63;5024521;28;19921;-70
2023/04/11 00:15:38;;;;;;;;;;;;;;;9.70;86.23;96441.03;5042130;28;19917;-70
2023/04/11 00:18:05;;;;;;;;;;;;;;;9.68;86.66;96446.06;5023896;28;19978;-66
2023/04/11 00:20:30;;;;;;;;;;;;;;;9.65;87.13;96438.63;5023070;28;19975;-72
2023/04/11 00:22:57;;;;;;;;;;;;;;;9.53;87.35;96439.59;5017234;28;20358;-68
2023/04/11 00:25:22;;;;;;;;;;;;;;;9.46;87.83;96444.16;5012819;28;20093;-67
2023/04/11 00:27:47;;;;;;;;;;;;;;;9.47;88.01;96457.47;5003789;28;19917;-69
2023/04/11 00:30:13;;;;;;;;;;;;;;;9.34;90.02;96465.03;4998469;28;19971;-72
2023/04/11 00:32:38;;;;;;;;;;;;;;;9.21;91.47;96451.94;5003456;28;19933;-71
2023/04/11 00:35:04;;;;;;;;;;;;;;;9.24;91.66;96465.66;5000266;28;20012;-66
2023/04/11 00:37:34;;;;;;;;;;;;;;;9.44;91.10;96457.41;5002183;28;19921;-71
2023/04/11 00:40:00;;;;;;;;;;;;;;;9.81;88.82;96460.34;5003398;28;20374;-69
2023/04/11 00:42:26;;;;;;;;;;;;;;;9.81;88.31;96463.06;4997615;28;19924;-69
2023/04/11 00:44:51;;;;;;;;;;;;;;;9.86;88.40;96448.31;5004040;28;20012;-70
2023/04/11 00:47:16;;;;;;;;;;;;;;;9.85;88.66;96443.97;5013446;28;20367;-69
2023/04/11 00:49:41;;;;;;;;;;;;;;;9.83;88.40;96451.75;5003268;28;19967;-72
2023/04/11 00:52:07;;;;;;;;;;;;;;;10.03;87.68;96431.38;4994400;28;19924;-69
2023/04/11 00:54:32;;;;;;;;;;;;;;;10.30;83.94;96415.69;5021909;28;19918;-71
2023/04/11 00:56:58;;;;;;;;;;;;;;;10.39;82.59;96398.22;5022908;28;19924;-70
2023/04/11 00:59:25;;;;;;;;;;;;;;;10.48;80.76;96380.34;5017471;28;19932;-70
2023/04/11 01:01:50;;;;;;;;;;;;;;;10.55;79.47;96373.38;5022041;28;19921;-69
2023/04/11 01:04:16;;;;;;;;;;;;;;;10.60;78.66;96365.59;5018554;28;20392;-68
2023/04/11 01:06:43;;;;;;;;;;;;;;;10.61;78.09;96356.25;5023115;28;19924;-70
2023/04/11 01:09:09;;;;;;;;;;;;;;;10.71;76.75;96350.09;5001046;28;19971;-70
2023/04/11 01:11:34;;;;;;;;;;;;;;;10.77;75.68;96352.47;5022470;28;19921;-71
2023/04/11 01:14:00;;;;;;;;;;;;;;;10.66;74.97;96353.16;5021216;28;19917;-71
2023/04/11 01:16:25;;;;;;;;;;;;;;;10.55;76.32;96357.72;5017443;28;19921;-69
2023/04/11 01:18:51;;;;;;;;;;;;;;;10.43;79.84;96356.03;5021414;28;19971;-69
2023/04/11 01:21:18;;;;;;;;;;;;;;;10.37;84.01;96354.81;5017801;28;19917;-70
2023/04/11 01:23:43;;;;;;;;;;;;;;;10.28;85.38;96351.53;5023786;28;19952;-70
2023/04/11 01:26:08;;;;;;;;;;;;;;;10.27;85.92;96352.69;5018089;28;19921;-70
2023/04/11 01:28:34;;;;;;;;;;;;;;;10.17;86.22;96347.88;5003442;28;19923;-68
2023/04/11 01:30:59;;;;;;;;;;;;;;;10.04;86.37;96347.31;5021433;28;19917;-72
2023/04/11 01:33:24;;;;;;;;;;;;;;;9.95;85.94;96347.59;5017668;28;19971;-71
2023/04/11 01:35:50;;;;;;;;;;;;;;;9.90;85.93;96346.00;5020210;28;20358;-71
2023/04/11 01:38:15;;;;;;;;;;;;;;;9.89;86.87;96349.88;4998931;28;20315;-72
2023/04/11 01:40:40;;;;;;;;;;;;;;;9.95;88.77;96364.03;5004970;28;19917;-72
2023/04/11 01:43:08;;;;;;;;;;;;;;;9.93;89.72;96367.13;5017367;28;20015;-71
2023/04/11 01:45:33;;;;;;;;;;;;;;;9.89;90.06;96360.81;5020777;28;19925;-71
2023/04/11 01:47:59;;;;;;;;;;;;;;;9.87;89.73;96354.94;5023337;28;19963;-70
2023/04/11 01:50:24;;;;;;;;;;;;;;;9.78;90.17;96368.09;5015078;28;19917;-72
2023/04/11 01:52:50;;;;;;;;;;;;;;;9.74;90.33;96359.03;4998472;28;19945;-70
2023/04/11 01:55:15;;;;;;;;;;;;;;;9.70;90.79;96360.94;4994776;28;19932;-72
2023/04/11 01:57:41;;;;;;;;;;;;;;;9.61;90.84;96361.19;5002760;28;20371;-69
2023/04/11 02:00:09;;;;;;;;;;;;;;;9.65;91.17;96358.50;4980423;28;19917;-70
2023/04/11 02:02:35;;;;;;;;;;;;;;;9.67;91.04;96361.66;5003305;28;20455;-71
2023/04/11 02:05:00;;;;;;;;;;;;;;;9.65;91.26;96369.44;5003000;28;20008;-71
2023/04/11 02:07:26;;;;;;;;;;;;;;;9.63;91.64;96364.34;5007983;28;19917;-70
2023/04/11 02:09:51;;;;;;;;;;;;;;;9.67;91.48;96351.53;5013787;28;20324;-70
2023/04/11 02:12:16;;;;;;;;;;;;;;;9.74;88.66;96348.91;5017833;28;20287;-72
2023/04/11 02:14:43;;;;;;;;;;;;;;;9.70;87.81;96341.78;5020927;28;19943;-71
2023/04/11 02:17:08;;;;;;;;;;;;;;;9.71;85.42;96343.38;5016202;28;20308;-71
2023/04/11 02:19:34;;;;;;;;;;;;;;;9.67;86.73;96343.34;5021736;28;20024;-70
2023/04/11 02:22:00;;;;;;;;;;;;;;;9.68;89.83;96349.59;5015920;28;20437;-70
2023/04/11 02:24:27;;;;;;;;;;;;;;;9.66;91.01;96343.69;4998616;28;19921;-68
2023/04/11 02:26:52;;;;;;;;;;;;;;;9.77;89.69;96342.69;5011865;28;20134;-70
2023/04/11 02:29:17;;;;;;;;;;;;;;;9.82;81.62;96343.53;5013029;28;20413;-70
2023/04/11 02:31:42;;;;;;;;;;;;;;;10.18;72.02;96333.03;5003515;28;19926;-72
2023/04/11 02:34:08;;;;;;;;;;;;;;;10.44;70.88;96335.72;5011737;28;19917;-68
2023/04/11 02:36:33;;;;;;;;;;;;;;;10.60;67.91;96342.91;5024929;28;19954;-71
2023/04/11 02:38:59;;;;;;;;;;;;;;;10.86;65.54;96331.84;5025708;28;19917;-69
2023/04/11 02:41:25;;;;;;;;;;;;;;;11.11;62.63;96336.75;5022025;28;19917;-71
2023/04/11 02:43:50;;;;;;;;;;;;;;;11.32;60.68;96338.09;5022619;28;19982;-71
2023/04/11 02:46:15;;;;;;;;;;;;;;;11.52;59.67;96333.13;5016223;28;20429;-70
2023/04/11 02:48:41;;;;;;;;;;;;;;;11.59;58.88;96316.72;5006102;28;19929;-71
2023/04/11 02:51:06;;;;;;;;;;;;;;;11.81;57.14;96314.88;5005531;28;19917;-70
2023/04/11 02:53:32;;;;;;;;;;;;;;;11.82;56.59;96313.72;5023421;28;19961;-70
2023/04/11 02:55:57;;;;;;;;;;;;;;;11.80;56.90;96321.56;5023680;28;19917;-68
2023/04/11 02:58:24;;;;;;;;;;;;;;;11.77;56.70;96328.56;5021258;28;19944;-70
2023/04/11 03:00:50;;;;;;;;;;;;;;;11.72;56.96;96323.47;5023057;28;19917;-69
2023/04/11 03:03:15;;;;;;;;;;;;;;;11.75;57.16;96328.19;5019790;28;20377;-70
2023/04/11 03:05:40;;;;;;;;;;;;;;;11.81;57.03;96351.34;5024726;28;19929;-72
2023/04/11 03:08:07;;;;;;;;;;;;;;;11.77;56.97;96357.97;5016572;28;19993;-68
2023/04/11 03:10:33;;;;;;;;;;;;;;;11.70;57.26;96347.75;5021788;28;20056;-70
2023/04/11 03:12:58;;;;;;;;;;;;;;;11.70;57.44;96341.47;5024937;28;20016;-70
2023/04/11 03:15:24;;;;;;;;;;;;;;;11.72;57.35;96342.69;5018526;28;19920;-68
2023/04/11 03:17:49;;;;;;;;;;;;;;;11.83;57.57;96337.25;5024475;28;19928;-70
2023/04/11 03:20:18;;;;;;;;;;;;;;;11.82;58.31;96330.19;5017789;28;19955;-71
2023/04/11 03:22:44;;;;;;;;;;;;;;;11.81;57.90;96329.41;5023370;28;19917;-71
2023/04/11 03:25:09;;;;;;;;;;;;;;;11.83;58.06;96335.28;5002831;28;19929;-71
2023/04/11 03:27:34;;;;;;;;;;;;;;;11.81;58.28;96334.91;5024239;28;19999;-68
2023/04/11 03:30:00;;;;;;;;;;;;;;;11.80;58.93;96344.28;5030763;28;19917;-70
2023/04/11 03:32:25;;;;;;;;;;;;;;;11.74;59.46;96354.06;5031077;28;20273;-69
2023/04/11 03:34:50;;;;;;;;;;;;;;;11.82;59.36;96360.38;5033292;28;19921;-69
2023/04/11 03:37:16;;;;;;;;;;;;;;;11.79;62.14;96369.34;5020338;28;19917;-71
2023/04/11 03:39:41;;;;;;;;;;;;;;;11.73;63.90;96366.19;5024266;28;19917;-70
2023/04/11 03:42:06;;;;;;;;;;;;;;;11.84;64.30;96380.75;5020723;28;19964;-72
2023/04/11 03:44:31;;;;;;;;;;;;;;;11.79;65.10;96375.66;5025252;28;19927;-71
2023/04/11 03:46:57;;;;;;;;;;;;;;;11.75;68.13;96369.34;4996915;28;19917;-69
2023/04/11 03:49:22;;;;;;;;;;;;;;;11.61;73.77;96369.22;4996690;28;20693;-70
2023/04/11 03:51:47;;;;;;;;;;;;;;;11.59;76.57;96358.63;5018090;28;19917;-70
2023/04/11 03:54:13;;;;;;;;;;;;;;;11.52;76.69;96371.53;5022800;28;20408;-72
2023/04/11 03:56:38;;;;;;;;;;;;;;;11.48;76.52;96358.56;5026143;28;19929;-72
2023/04/11 03:59:03;;;;;;;;;;;;;;;11.43;76.17;96364.44;5022668;28;20378;-68
2023/04/11 04:01:31;;;;;;;;;;;;;;;11.39;78.00;96373.78;5023344;28;19921;-70
2023/04/11 04:03:56;;;;;;;;;;;;;;;11.39;80.03;96371.03;5024703;28;19921;-71
2023/04/11 04:06:21;;;;;;;;;;;;;;;11.28;81.59;96363.50;5020006;28;20131;-72
2023/04/11 04:08:46;;;;;;;;;;;;;;;11.22;83.61;96359.56;5023485;28;19971;-72
2023/04/11 04:11:12;;;;;;;;;;;;;;;11.16;86.58;96379.47;5011687;28;20294;-71
2023/04/11 04:13:37;;;;;;;;;;;;;;;10.95;91.25;96382.78;5024023;28;19917;-71
2023/04/11 04:16:03;;;;;;;;;;;;;;;10.91;93.43;96382.75;5029914;28;19992;-68
2023/04/11 04:18:28;;;;;;;;;;;;;;;10.88;94.54;96389.78;5021496;28;19925;-71
2023/04/11 04:20:54;;;;;;;;;;;;;;;10.79;95.96;96383.03;5023579;28;19921;-72
2023/04/11 04:23:22;;;;;;;;;;;;;;;10.74;97.25;96391.59;5018067;28;19940;-71
2023/04/11 04:25:48;;;;;;;;;;;;;;;10.57;99.26;96391.03;5024175;28;19922;-72
2023/04/11 04:28:19;;;;;;;;;;;;;;;10.48;100.00;96388.56;5021042;28;19964;-71
2023/04/11 04:30:48;;;;;;;;;;;;;;;10.45;100.00;96392.03;5023567;28;19964;-72
2023/04/11 04:33:14;;;;;;;;;;;;;;;10.26;100.00;96375.75;5002503;28;19928;-71
2023/04/11 04:35:39;;;;;;;;;;;;;;;10.11;100.00;96375.56;5026450;28;20298;-71
2023/04/11 04:38:05;;;;;;;;;;;;;;;9.84;100.00;96377.53;5019631;28;20340;-69
2023/04/11 04:40:30;;;;;;;;;;;;;;;9.77;100.00;96380.97;4990882;28;19956;-71
2023/04/11 04:43:00;;;;;;;;;;;;;;;9.67;100.00;96403.50;5022762;28;19921;-71
2023/04/11 04:45:26;;;;;;;;;;;;;;;9.64;100.00;96404.22;5019161;28;19944;-69
2023/04/11 04:47:51;;;;;;;;;;;;;;;9.66;100.00;96403.84;5022459;28;19921;-68
2023/04/11 04:50:16;;;;;;;;;;;;;;;9.61;100.00;96394.00;5019573;28;20418;-70
2023/04/11 04:52:42;;;;;;;;;;;;;;;9.65;100.00;96403.06;5023461;28;20024;-70
2023/04/11 04:55:07;;;;;;;;;;;;;;;9.62;100.00;96400.28;5016927;28;19924;-70
2023/04/11 04:57:32;;;;;;;;;;;;;;;9.64;100.00;96389.78;5023927;28;19924;-71
2023/04/11 04:59:58;;;;;;;;;;;;;;;9.64;100.00;96412.41;5022017;28;19924;-69
2023/04/11 05:02:26;;;;;;;;;;;;;;;9.59;100.00;96425.63;5019865;28;20399;-71
2023/04/11 05:04:54;;;;;;;;;;;;;;;9.56;100.00;96424.41;5024177;28;19921;-70
2023/04/11 05:07:20;;;;;;;;;;;;;;;9.41;100.00;96439.00;5001524;28;19925;-72
2023/04/11 05:09:45;;;;;;;;;;;;;;;9.35;100.00;96452.19;5030026;28;19918;-70
2023/04/11 05:12:12;;;;;;;;;;;;;;;9.20;100.00;96453.88;5024152;28;19923;-72
2023/04/11 05:14:37;;;;;;;;;;;;;;;9.04;100.00;96459.47;5022185;28;19917;-71
2023/04/11 05:17:03;;;;;;;;;;;;;;;8.98;100.00;96447.22;5020451;28;19921;-68
2023/04/11 05:19:28;;;;;;;;;;;;;;;8.93;100.00;96450.25;5022059;28;20293;-70
2023/04/11 05:21:53;;;;;;;;;;;;;;;8.81;100.00;96445.75;5024255;28;19956;-69
2023/04/11 05:24:18;;;;;;;;;;;;;;;8.76;100.00;96444.09;5018660;28;20329;-71
2023/04/11 05:26:44;;;;;;;;;;;;;;;8.76;100.00;96430.44;5039851;28;19909;-70
2023/04/11 05:29:10;;;;;;;;;;;;;;;8.75;100.00;96426.16;5023995;28;20399;-69
2023/04/11 05:31:36;;;;;;;;;;;;;;;8.69;100.00;96438.50;5022472;28;19917;-70
2023/04/11 05:34:02;;;;;;;;;;;;;;;8.70;100.00;96431.13;5020975;28;19921;-69
2023/04/11 05:36:27;;;;;;;;;;;;;;;8.68;100.00;96425.19;5001289;28;20388;-70
2023/04/11 05:38:52;;;;;;;;;;;;;;;8.64;100.00;96429.81;5022822;28;19917;-72
2023/04/11 05:41:18;;;;;;;;;;;;;;;8.57;100.00;96433.19;5017444;28;19917;-69
2023/04/11 05:43:43;;;;;;;;;;;;;;;8.55;100.00;96428.09;5022547;28;19925;-70
2023/04/11 05:46:08;;;;;;;;;;;;;;;8.51;100.00;96429.16;5018055;28;19921;-72
2023/04/11 05:48:34;;;;;;;;;;;;;;;8.57;100.00;96430.44;5021626;28;19971;-68
2023/04/11 05:51:00;;;;;;;;;;;;;;;8.48;100.00;96422.50;5013981;28;19997;-69
2023/04/11 05:53:25;;;;;;;;;;;;;;;8.42;100.00;96421.19;4999346;28;19917;-70
2023/04/11 05:55:51;;;;;;;;;;;;;;;8.36;100.00;96431.59;5001524;28;19917;-69
2023/04/11 05:58:16;;;;;;;;;;;;;;;8.44;100.00;96440.72;4997341;28;19968;-69
2023/04/11 06:00:42;;;;;;;;;;;;;;;8.49;100.00;96429.53;5002141;28;19924;-72
2023/04/11 06:03:08;;;;;;;;;;;;;;;8.58;100.00;96421.91;4997353;28;19968;-72
2023/04/11 06:05:33;;;;;;;;;;;;;;;8.50;100.00;96428.38;5001852;28;20374;-72
2023/04/11 06:08:00;;;;;;;;;;;;;;;8.40;100.00;96437.91;5002823;28;20020;-70
2023/04/11 06:10:25;;;;;;;;;;;;;;;8.45;100.00;96431.41;5005034;28;19917;-71
2023/04/11 06:12:51;;;;;;;;;;;;;;;8.43;100.00;96441.91;5002553;28;19928;-69
2023/04/11 06:15:17;;;;;;;;;;;;;;;8.41;100.00;96446.91;4998503;28;19949;-70
2023/04/11 06:17:42;;;;;;;;;;;;;;;8.46;100.00;96443.88;5002091;28;19929;-71
2023/04/11 06:20:09;;;;;;;;;;;;;;;8.49;100.00;96445.13;4997842;28;19957;-70
2023/04/11 06:22:34;;;;;;;;;;;;;;;8.46;100.00;96457.53;5002338;28;19924;-71
2023/04/11 06:24:59;;;;;;;;;;;;;;;8.51;100.00;96442.81;5001857;28;19922;-71
2023/04/11 06:27:25;;;;;;;;;;;;;;;8.47;100.00;96441.97;4997318;28;20052;-73
2023/04/11 06:29:50;;;;;;;;;;;;;;;8.49;100.00;96459.56;5001077;28;19944;-71
2023/04/11 06:32:16;;;;;;;;;;;;;;;8.51;100.00;96451.78;4997424;28;19940;-72
2023/04/11 06:34:41;;;;;;;;;;;;;;;8.54;100.00;96453.81;5015063;28;19925;-72
2023/04/11 06:37:07;;;;;;;;;;;;;;;8.56;100.00;96465.16;4998148;28;19976;-71
2023/04/11 06:39:33;;;;;;;;;;;;;;;8.54;100.00;96470.19;5018440;28;19957;-71
2023/04/11 06:41:58;;;;;;;;;;;;;;;8.51;100.00;96470.13;4985082;28;19921;-70
2023/04/11 06:44:24;;;;;;;;;;;;;;;8.57;100.00;96469.47;5003723;28;20389;-72
2023/04/11 06:46:49;;;;;;;;;;;;;;;8.55;100.00;96468.25;5004376;28;19917;-71
2023/04/11 06:49:17;;;;;;;;;;;;;;;8.49;100.00;96467.75;5015251;28;19926;-71
2023/04/11 06:51:45;;;;;;;;;;;;;;;8.52;100.00;96460.78;5027650;28;20004;-72
2023/04/11 06:54:11;;;;;;;;;;;;;;;8.61;100.00;96472.28;5018404;28;19924;-70
2023/04/11 06:56:36;;;;;;;;;;;;;;;8.61;100.00;96475.78;5023321;28;19917;-71
2023/04/11 06:59:01;;;;;;;;;;;;;;;8.67;100.00;96480.97;5022453;28;19921;-71
2023/04/11 07:01:34;;;;;;;;;;;;;;;8.81;100.00;96511.28;5017144;28;19971;-71
2023/04/11 07:03:59;;;;;;;;;;;;;;;8.75;100.00;96521.72;5037035;28;19921;-70
2023/04/11 07:06:25;;;;;;;;;;;;;;;8.58;100.00;96530.31;5000553;28;20015;-71
2023/04/11 07:08:51;;;;;;;;;;;;;;;8.40;100.00;96529.91;5023128;28;19924;-73
2023/04/11 07:11:16;;;;;;;;;;;;;;;8.22;100.00;96543.16;5006874;28;19917;-72
2023/04/11 07:13:42;;;;;;;;;;;;;;;8.08;100.00;96557.22;5014107;28;20016;-72
2023/04/11 07:16:07;;;;;;;;;;;;;;;8.16;100.00;96558.22;5016108;28;19917;-71
2023/04/11 07:18:32;;;;;;;;;;;;;;;8.13;100.00;96556.97;5024092;28;19990;-72
2023/04/11 07:20:58;;;;;;;;;;;;;;;8.15;100.00;96560.13;5013955;28;19918;-72
2023/04/11 07:23:23;;;;;;;;;;;;;;;8.22;100.00;96562.25;5003574;28;20856;-73
2023/04/11 07:25:48;;;;;;;;;;;;;;;8.21;100.00;96558.72;4989521;28;20023;-71
2023/04/11 07:28:14;;;;;;;;;;;;;;;8.27;100.00;96564.69;4999933;28;19918;-71
2023/04/11 07:30:39;;;;;;;;;;;;;;;8.30;100.00;96569.47;5008770;28;19925;-71
2023/04/11 07:33:05;;;;;;;;;;;;;;;8.36;100.00;96568.03;4989620;28;20337;-71
2023/04/11 07:35:32;;;;;;;;;;;;;;;8.40;100.00;96562.66;5027306;28;19921;-73
2023/04/11 07:37:57;;;;;;;;;;;;;;;8.41;100.00;96561.53;5034728;28;19917;-72
2023/04/11 07:40:23;;;;;;;;;;;;;;;8.42;100.00;96566.63;5030961;28;19944;-71
2023/04/11 07:42:48;;;;;;;;;;;;;;;8.51;100.00;96563.69;5025394;28;19921;-71
2023/04/11 07:45:13;;;;;;;;;;;;;;;8.53;100.00;96577.00;5021331;28;19972;-71
2023/04/11 07:47:39;;;;;;;;;;;;;;;8.62;100.00;96580.31;5026741;28;19961;-73
2023/04/11 07:50:04;;;;;;;;;;;;;;;8.54;100.00;96590.28;5023156;28;19921;-70
2023/04/11 07:52:30;;;;;;;;;;;;;;;8.59;100.00;96595.47;5008161;28;20512;-73
2023/04/11 07:54:55;;;;;;;;;;;;;;;8.55;100.00;96596.53;5007520;28;19925;-73
2023/04/11 07:57:20;;;;;;;;;;;;;;;8.61;100.00;96608.78;5000500;28;20741;-72
2023/04/11 07:59:46;;;;;;;;;;;;;;;8.67;100.00;96609.28;5004945;28;19921;-71
2023/04/11 08:02:11;;;;;;;;;;;;;;;8.39;100.00;96604.72;5002818;28;19922;-73
2023/04/11 08:04:37;;;;;;;;;;;;;;;8.49;100.00;96612.41;5006817;28;19922;-72
2023/04/11 08:07:03;;;;;;;;;;;;;;;8.65;100.00;96596.00;5004407;28;20302;-71
2023/04/11 08:09:28;;;;;;;;;;;;;;;8.72;100.00;96596.16;5016976;28;19917;-72
2023/04/11 08:11:53;;;;;;;;;;;;;;;8.70;100.00;96603.13;5016550;28;19918;-70
2023/04/11 08:14:19;;;;;;;;;;;;;;;8.96;100.00;96588.84;5020023;28;20337;-71
2023/04/11 08:16:45;;;;;;;;;;;;;;;9.40;100.00;96590.47;5024516;28;20015;-71
2023/04/11 08:19:10;;;;;;;;;;;;;;;9.55;100.00;96600.53;5001604;28;19925;-70
2023/04/11 08:21:36;;;;;;;;;;;;;;;9.38;100.00;96605.31;5025217;28;19924;-71
2023/04/11 08:24:01;;;;;;;;;;;;;;;9.24;100.00;96612.44;5026715;28;19917;-72
2023/04/11 08:26:27;;;;;;;;;;;;;;;9.28;100.00;96619.56;5019367;28;20012;-72
2023/04/11 08:28:52;;;;;;;;;;;;;;;9.13;100.00;96632.16;5026029;28;19921;-72
2023/04/11 08:31:18;;;;;;;;;;;;;;;9.28;100.00;96626.97;5002245;28;19917;-73
2023/04/11 08:33:43;;;;;;;;;;;;;;;9.31;100.00;96624.31;5016690;28;20035;-70
2023/04/11 08:36:08;;;;;;;;;;;;;;;9.39;100.00;96633.44;4966152;28;19944;-72
2023/04/11 08:38:36;;;;;;;;;;;;;;;9.15;100.00;96643.50;4986598;28;19925;-72
2023/04/11 08:41:02;;;;;;;;;;;;;;;9.13;100.00;96648.53;5004277;28;19985;-72
2023/04/11 08:43:27;;;;;;;;;;;;;;;9.14;100.00;96660.25;5000823;28;20001;-73
2023/04/11 08:45:52;;;;;;;;;;;;;;;8.90;100.00;96651.16;5003352;28;19933;-72
2023/04/11 08:48:24;;;;;;;;;;;;;;;8.94;100.00;96660.22;4998313;28;20521;-71
2023/04/11 08:50:49;;;;;;;;;;;;;;;9.29;100.00;96675.00;5009071;28;19925;-72
2023/04/11 08:53:17;;;;;;;;;;;;;;;9.18;100.00;96677.50;5021686;28;19928;-72
2023/04/11 08:55:44;;;;;;;;;;;;;;;9.35;100.00;96671.63;5026689;28;19936;-72
2023/04/11 08:58:09;;;;;;;;;;;;;;;9.36;100.00;96681.44;5002426;28;19924;-70
2023/04/11 09:00:34;;;;;;;;;;;;;;;9.45;100.00;96678.47;5006420;28;20282;-70
2023/04/11 09:03:01;;;;;;;;;;;;;;;9.69;100.00;96668.41;5007904;28;19920;-70
2023/04/11 09:05:28;;;;;;;;;;;;;;;9.48;100.00;96676.97;5020935;28;19975;-71
2023/04/11 09:07:54;;;;;;;;;;;;;;;9.71;100.00;96671.56;4990001;28;19917;-69
2023/04/11 09:10:20;;;;;;;;;;;;;;;9.89;100.00;96674.63;5011304;28;19917;-71
2023/04/11 09:12:45;;;;;;;;;;;;;;;10.05;100.00;96667.09;5008759;28;20007;-71
2023/04/11 09:15:20;;;;;;;;;;;;;;;10.23;100.00;96678.38;5001026;28;19933;-69
2023/04/11 09:17:46;;;;;;;;;;;;;;;10.28;100.00;96674.53;5007486;28;19933;-72
2023/04/11 09:20:15;;;;;;;;;;;;;;;10.19;100.00;96674.78;5003361;28;19921;-74
2023/04/11 09:22:41;;;;;;;;;;;;;;;10.32;100.00;96672.69;5005068;28;19921;-71
2023/04/11 09:25:06;;;;;;;;;;;;;;;10.20;100.00;96673.63;5002819;28;19925;-70
2023/04/11 09:27:31;;;;;;;;;;;;;;;10.20;100.00;96681.03;5005823;28;19921;-71
2023/04/11 09:29:57;;;;;;;;;;;;;;;10.25;100.00;96662.38;5005979;28;19918;-72
2023/04/11 09:32:32;;;;;;;;;;;;;;;10.17;100.00;96671.59;5003200;28;20237;-70
2023/04/11 09:35:10;;;;;;;;;;;;;;;10.20;100.00;96681.03;5006101;28;19917;-73
2023/04/11 09:37:45;;;;;;;;;;;;;;;10.53;100.00;96683.19;5008704;28;19924;-71
2023/04/11 09:40:11;;;;;;;;;;;;;;;10.40;100.00;96679.06;5002169;28;19917;-71
2023/04/11 09:42:37;;;;;;;;;;;;;;;10.62;100.00;96677.44;5024540;28;19924;-70
2023/04/11 09:45:03;;;;;;;;;;;;;;;10.40;100.00;96688.06;5004236;28;20625;-70
2023/04/11 09:47:31;;;;;;;;;;;;;;;10.10;100.00;96693.38;5002810;28;19917;-72
2023/04/11 09:49:57;;;;;;;;;;;;;;;10.05;100.00;96696.44;5002519;28;20341;-71
2023/04/11 09:52:23;;;;;;;;;;;;;;;10.22;100.00;96684.97;5015701;28;20016;-71
2023/04/11 09:54:49;;;;;;;;;;;;;;;10.30;100.00;96688.66;5024772;28;19939;-70
2023/04/11 09:57:16;;;;;;;;;;;;;;;10.13;100.00;96698.91;5018647;28;19921;-71
2023/04/11 09:59:42;;;;;;;;;;;;;;;10.24;100.00;96701.03;5024420;28;20306;-71
2023/04/11 10:02:08;;;;;;;;;;;;;;;10.45;100.00;96698.72;5019767;28;19921;-71
2023/04/11 10:04:33;;;;;;;;;;;;;;;10.58;100.00;96693.03;5026155;28;19923;-72
2023/04/11 10:07:07;;;;;;;;;;;;;;;10.44;100.00;96680.72;5020908;28;19966;-71
2023/04/11 10:09:37;;;;;;;;;;;;;;;10.40;100.00;96687.28;5011580;28;19925;-71
2023/04/11 10:12:03;;;;;;;;;;;;;;;10.47;100.00;96690.91;5010454;28;19922;-70
2023/04/11 10:14:37;;;;;;;;;;;;;;;10.40;100.00;96695.50;5022257;28;19921;-70
2023/04/11 10:17:12;;;;;;;;;;;;;;;10.35;100.00;96695.78;5024835;28;19967;-69
2023/04/11 10:19:38;;;;;;;;;;;;;;;10.44;100.00;96693.59;5025489;28;20431;-71
2023/04/11 10:22:04;;;;;;;;;;;;;;;10.27;100.00;96692.91;5019628;28;19921;-68
2023/04/11 10:24:29;;;;;;;;;;;;;;;9.75;100.00;96694.28;5023465;28;19917;-70
2023/04/11 10:26:56;;;;;;;;;;;;;;;9.50;100.00;96700.03;5024632;28;19967;-69
2023/04/11 10:29:49;;;;;;;;;;;;;;;9.35;100.00;96709.13;5020100;28;20583;-71
2023/04/11 10:32:18;;;;;;;;;;;;;;;9.33;100.00;96703.22;5018187;28;19967;-70
2023/04/11 10:34:53;;;;;;;;;;;;;;;9.53;100.00;96701.28;5021636;28;19917;-72
2023/04/11 10:37:34;;;;;;;;;;;;;;;9.47;100.00;96711.72;5019071;28;19917;-71
2023/04/11 10:39:59;;;;;;;;;;;;;;;9.43;100.00;96721.78;5023279;28;19917;-71
2023/04/11 10:42:32;;;;;;;;;;;;;;;9.37;100.00;96710.31;5018145;28;20011;-71
2023/04/11 10:45:16;;;;;;;;;;;;;;;9.48;100.00;96715.25;5022052;28;19921;-70
2023/04/11 10:47:42;;;;;;;;;;;;;;;9.35;100.00;96709.13;5027505;28;19917;-71
2023/04/11 10:50:26;;;;;;;;;;;;;;;9.07;100.00;96707.31;5017309;28;19924;-71
2023/04/11 10:52:55;;;;;;;;;;;;;;;8.80;100.00;96703.59;5024344;28;19928;-71
2023/04/11 10:55:21;;;;;;;;;;;;;;;8.68;100.00;96698.22;5020689;28;20028;-70
2023/04/11 10:58:02;;;;;;;;;;;;;;;8.84;100.00;96688.09;5026347;28;20011;-71
2023/04/11 11:00:28;;;;;;;;;;;;;;;9.19;100.00;96685.34;4988556;28;19931;-71
2023/04/11 11:02:53;;;;;;;;;;;;;;;9.31;100.00;96684.44;5026550;28;19917;-70
2023/04/11 11:05:20;;;;;;;;;;;;;;;9.61;100.00;96678.38;5020549;28;20373;-71
2023/04/11 11:07:46;;;;;;;;;;;;;;;9.54;100.00;96681.78;5025777;28;19917;-70
2023/04/11 11:10:12;;;;;;;;;;;;;;;9.68;100.00;96666.81;5004354;28;19917;-72
2023/04/11 11:12:50;;;;;;;;;;;;;;;10.03;100.00;96683.09;5017611;28;19918;-71
2023/04/11 11:15:15;;;;;;;;;;;;;;;10.29;100.00;96689.81;5001399;28;19925;-71
2023/04/11 11:17:41;;;;;;;;;;;;;;;9.95;100.00;96692.31;5007339;28;19917;-70
2023/04/11 11:20:14;;;;;;;;;;;;;;;9.69;100.00;96693.00;4995125;28;19921;-70
2023/04/11 11:22:40;;;;;;;;;;;;;;;9.49;100.00;96698.47;5020018;28;19917;-71
2023/04/11 11:25:08;;;;;;;;;;;;;;;9.31;100.00;96698.09;5019068;28;19929;-68
2023/04/11 11:27:33;;;;;;;;;;;;;;;8.92;100.00;96694.50;5011941;28;20382;-71
2023/04/11 11:30:08;;;;;;;;;;;;;;;9.02;100.00;96701.34;5008266;28;19918;-70
2023/04/11 11:32:33;;;;;;;;;;;;;;;9.10;100.00;96701.16;4992663;28;19917;-72
2023/04/11 11:34:59;;;;;;;;;;;;;;;9.14;100.00;96703.97;5032399;28;19924;-71
2023/04/11 11:37:24;;;;;;;;;;;;;;;9.10;100.00;96703.88;5027177;28;19917;-70
2023/04/11 11:39:50;;;;;;;;;;;;;;;9.31;100.00;96700.84;5030047;28;20397;-71
2023/04/11 11:42:15;;;;;;;;;;;;;;;9.28;100.00;96701.53;5025744;28;19917;-70
2023/04/11 11:44:41;;;;;;;;;;;;;;;9.46;100.00;96704.66;5012631;28;20403;-71
2023/04/11 11:47:14;;;;;;;;;;;;;;;9.65;100.00;96694.88;5010934;28;19921;-69
2023/04/11 11:49:46;;;;;;;;;;;;;;;9.71;100.00;96683.28;5005497;28;19921;-71
2023/04/11 11:52:12;;;;;;;;;;;;;;;9.98;100.00;96688.09;5025383;28;20372;-70
2023/04/11 11:54:45;;;;;;;;;;;;;;;10.19;100.00;96693.13;5026130;28;20412;-70
2023/04/11 11:57:10;;;;;;;;;;;;;;;10.34;100.00;96689.53;5023001;28;19917;-71
2023/04/11 11:59:36;;;;;;;;;;;;;;;10.37;100.00;96690.75;5006281;28;20388;-71
2023/04/11 12:02:01;;;;;;;;;;;;;;;10.35;100.00;96684.84;5025967;28;19917;-72
2023/04/11 12:04:27;;;;;;;;;;;;;;;10.41;100.00;96677.91;5025878;28;20365;-73
2023/04/11 12:06:53;;;;;;;;;;;;;;;10.27;100.00;96673.72;5032467;28;19956;-71
2023/04/11 12:09:18;;;;;;;;;;;;;;;10.54;100.00;96670.28;5037508;28;19925;-72
2023/04/11 12:11:44;;;;;;;;;;;;;;;10.66;100.00;96683.78;5024819;28;19921;-70
2023/04/11 12:14:11;;;;;;;;;;;;;;;10.53;100.00;96683.19;5020623;28;20028;-71
2023/04/11 12:16:36;;;;;;;;;;;;;;;10.20;100.00;96678.31;5025813;28;20396;-72
2023/04/11 12:19:02;;;;;;;;;;;;;;;9.92;100.00;96688.38;5024040;28;20008;-70
2023/04/11 12:21:28;;;;;;;;;;;;;;;9.94;100.00;96690.75;5022391;28;19917;-69
2023/04/11 12:23:53;;;;;;;;;;;;;;;9.82;99.33;96685.44;5024404;28;20012;-70
2023/04/11 12:26:20;;;;;;;;;;;;;;;9.89;100.00;96688.31;5019061;28;19943;-70
2023/04/11 12:28:45;;;;;;;;;;;;;;;10.02;99.72;96705.34;5022245;28;20019;-70
2023/04/11 12:31:11;;;;;;;;;;;;;;;10.29;100.00;96698.78;5018588;28;19956;-70
2023/04/11 12:33:37;;;;;;;;;;;;;;;10.41;100.00;96700.59;5025771;28;19971;-71
2023/04/11 12:36:02;;;;;;;;;;;;;;;10.40;96.98;96692.75;5035923;28;20176;-67
2023/04/11 12:38:27;;;;;;;;;;;;;;;10.42;95.95;96690.44;5027026;28;20286;-71
2023/04/11 12:40:53;;;;;;;;;;;;;;;10.16;94.90;96708.34;5024639;28;19921;-71
2023/04/11 12:43:18;;;;;;;;;;;;;;;10.32;91.41;96698.09;5020043;28;20543;-70